Time;durP1;ratioP1;P1;durP2;ratioP2;P2;SDS_P1;SDS_P2;PMS_P1;PMS_P2;Temp;Humidity;BMP_temperature;BMP_pressure;BME280_temperature;BME280_humidity;BME280_pressure;Samples;Min_cycle;Max_cycle;Signal;HPM_P1;HPM_P2
2022/03/05 00:00:00;;;;;;;16.90;10.65;;;8.40;37.10;;;;;;1082097;47;20802;-68
2022/03/05 00:01:21;;;;;;;16.20;10.60;;;8.30;37.00;;;;;;1081733;46;20038;-68
2022/03/05 00:02:42;;;;;;;15.65;11.35;;;8.30;37.00;;;;;;1082356;47;20069;-68
2022/03/05 00:04:03;;;;;;;17.33;10.93;;;8.30;37.00;;;;;;1082319;46;20126;-68
2022/03/05 00:05:25;;;;;;;15.25;10.65;;;8.30;37.00;;;;;;1082641;46;20065;-68
2022/03/05 00:06:47;;;;;;;17.10;11.20;;;8.30;37.00;;;;;;1081984;46;20059;-68
2022/03/05 00:08:09;;;;;;;15.95;10.98;;;8.30;37.10;;;;;;1082099;46;20060;-68
2022/03/05 00:09:30;;;;;;;15.48;10.60;;;8.20;37.10;;;;;;1082680;47;20035;-68
2022/03/05 00:10:51;;;;;;;16.00;11.27;;;8.20;37.10;;;;;;1082515;46;20034;-68
2022/03/05 00:12:13;;;;;;;17.63;10.85;;;8.20;37.20;;;;;;1082153;47;20034;-68
2022/03/05 00:13:36;;;;;;;14.43;10.35;;;8.20;37.20;;;;;;1082491;46;20039;-68
2022/03/05 00:14:57;;;;;;;16.00;10.93;;;8.20;37.20;;;;;;1081371;47;20035;-68
2022/03/05 00:16:17;;;;;;;16.83;10.65;;;8.10;37.20;;;;;;1082236;46;20050;-68
2022/03/05 00:17:38;;;;;;;16.83;11.38;;;8.10;37.30;;;;;;1082465;46;20034;-68
2022/03/05 00:18:59;;;;;;;17.98;10.68;;;8.10;37.40;;;;;;1082113;46;20146;-68
2022/03/05 00:20:22;;;;;;;15.95;10.48;;;8.10;37.50;;;;;;1082221;47;20046;-68
2022/03/05 00:21:43;;;;;;;17.95;11.43;;;8.10;37.60;;;;;;1081547;46;20796;-68
2022/03/05 00:23:04;;;;;;;18.58;11.82;;;8.10;37.70;;;;;;1082318;47;20519;-67
2022/03/05 00:24:25;;;;;;;17.77;11.52;;;8.10;37.70;;;;;;1080837;47;20063;-67
2022/03/05 00:25:46;;;;;;;16.40;11.23;;;8.00;37.80;;;;;;1081178;46;20840;-68
2022/03/05 00:27:08;;;;;;;17.25;11.43;;;8.00;38.10;;;;;;1081153;47;20531;-67
2022/03/05 00:28:29;;;;;;;20.65;12.23;;;8.00;37.90;;;;;;1080958;47;20587;-68
2022/03/05 00:29:50;;;;;;;19.98;11.85;;;8.00;38.00;;;;;;1080568;47;20046;-68
2022/03/05 00:31:11;;;;;;;16.30;11.10;;;8.00;38.10;;;;;;1081653;46;20082;-68
2022/03/05 00:32:33;;;;;;;18.00;11.43;;;8.00;38.10;;;;;;1081341;46;20038;-68
2022/03/05 00:33:54;;;;;;;19.05;11.45;;;7.90;38.30;;;;;;1081991;46;20042;-70
2022/03/05 00:35:15;;;;;;;18.02;12.00;;;7.90;38.20;;;;;;1081047;46;20041;-68
2022/03/05 00:36:37;;;;;;;17.35;11.38;;;7.90;38.30;;;;;;1082256;47;20026;-68
2022/03/05 00:37:59;;;;;;;19.10;10.48;;;7.90;38.30;;;;;;1081955;47;20034;-67
2022/03/05 00:39:20;;;;;;;14.57;10.15;;;7.80;38.30;;;;;;1082413;46;20474;-68
2022/03/05 00:40:41;;;;;;;17.73;10.90;;;7.80;38.40;;;;;;1081736;46;20038;-68
2022/03/05 00:42:03;;;;;;;17.88;11.80;;;7.80;38.40;;;;;;1081342;46;20129;-68
2022/03/05 00:43:24;;;;;;;19.33;11.13;;;7.80;38.50;;;;;;1082603;47;20462;-68
2022/03/05 00:44:45;;;;;;;17.95;10.45;;;7.80;38.60;;;;;;1082166;47;20756;-69
2022/03/05 00:46:06;;;;;;;17.92;10.75;;;7.80;38.70;;;;;;1081466;46;20034;-69
2022/03/05 00:47:27;;;;;;;16.67;9.68;;;7.80;38.70;;;;;;1081664;47;20034;-68
2022/03/05 00:48:48;;;;;;;16.88;9.25;;;7.70;38.80;;;;;;1082246;47;20034;-68
2022/03/05 00:50:10;;;;;;;15.65;9.40;;;7.70;38.80;;;;;;1081782;47;20046;-68
2022/03/05 00:51:31;;;;;;;16.25;9.23;;;7.70;39.00;;;;;;1082701;46;20042;-68
2022/03/05 00:52:52;;;;;;;14.48;8.57;;;7.70;39.00;;;;;;1082059;47;20792;-68
2022/03/05 00:54:13;;;;;;;16.42;9.18;;;7.70;39.10;;;;;;1082288;46;20129;-68
2022/03/05 00:55:34;;;;;;;19.20;9.88;;;7.70;39.10;;;;;;1082065;46;20490;-68
2022/03/05 00:56:55;;;;;;;15.23;9.20;;;7.60;39.20;;;;;;1082758;46;20122;-68
2022/03/05 00:58:16;;;;;;;17.95;10.07;;;7.60;39.20;;;;;;1082371;46;20035;-68
2022/03/05 00:59:37;;;;;;;17.00;9.57;;;7.60;39.30;;;;;;1081116;46;20035;-68
2022/03/05 01:00:58;;;;;;;19.73;10.80;;;7.60;39.40;;;;;;1081816;46;20487;-68
2022/03/05 01:02:19;;;;;;;15.45;9.07;;;7.50;39.40;;;;;;1082260;47;20058;-68
2022/03/05 01:03:40;;;;;;;15.30;9.27;;;7.50;39.40;;;;;;1082071;46;20058;-68
2022/03/05 01:05:01;;;;;;;17.85;9.75;;;7.50;39.50;;;;;;1082347;54;21148;-69
2022/03/05 01:06:22;;;;;;;15.27;9.10;;;7.50;39.60;;;;;;1080685;46;20174;-69
2022/03/05 01:07:43;;;;;;;16.77;9.98;;;7.50;39.70;;;;;;1081436;46;20082;-69
2022/03/05 01:09:05;;;;;;;16.92;9.82;;;7.50;39.70;;;;;;1082480;46;20038;-68
2022/03/05 01:10:26;;;;;;;16.20;9.00;;;7.40;39.80;;;;;;1082432;47;20058;-69
2022/03/05 01:11:47;;;;;;;19.75;10.52;;;7.50;39.90;;;;;;1082009;46;20034;-69
2022/03/05 01:13:08;;;;;;;18.88;10.13;;;7.40;39.90;;;;;;1081867;47;20890;-69
2022/03/05 01:14:29;;;;;;;18.65;9.55;;;7.40;40.00;;;;;;1082303;46;20041;-68
2022/03/05 01:15:50;;;;;;;19.83;10.13;;;7.40;40.00;;;;;;1081887;46;20039;-69
2022/03/05 01:17:11;;;;;;;18.33;10.18;;;7.40;40.10;;;;;;1081850;54;20046;-69
2022/03/05 01:18:32;;;;;;;16.13;9.50;;;7.40;40.20;;;;;;1082502;46;20145;-69
2022/03/05 01:19:54;;;;;;;18.00;10.40;;;7.30;40.20;;;;;;1081589;47;20065;-69
2022/03/05 01:21:14;;;;;;;19.23;9.55;;;7.30;40.20;;;;;;1082003;46;20042;-68
2022/03/05 01:22:36;;;;;;;17.23;10.07;;;7.30;40.30;;;;;;1082044;46;20042;-69
2022/03/05 01:23:57;;;;;;;17.13;9.40;;;7.30;40.30;;;;;;1082529;46;20033;-69
2022/03/05 01:25:18;;;;;;;16.33;9.77;;;7.30;40.40;;;;;;1082055;47;20038;-69
2022/03/05 01:26:39;;;;;;;17.30;9.98;;;7.20;40.30;;;;;;1082210;47;20034;-69
2022/03/05 01:28:00;;;;;;;16.95;10.38;;;7.20;40.40;;;;;;1081947;47;20041;-69
2022/03/05 01:29:21;;;;;;;18.77;10.18;;;7.20;40.50;;;;;;1081826;47;20482;-69
2022/03/05 01:30:42;;;;;;;19.55;10.93;;;7.20;40.50;;;;;;1082244;46;20590;-69
2022/03/05 01:32:04;;;;;;;19.92;10.32;;;7.20;40.70;;;;;;1081746;46;20044;-69
2022/03/05 01:33:25;;;;;;;16.65;9.80;;;7.20;40.70;;;;;;1082170;47;20889;-68
2022/03/05 01:34:46;;;;;;;20.05;10.82;;;7.10;40.70;;;;;;1081720;47;20043;-68
2022/03/05 01:36:07;;;;;;;18.20;9.63;;;7.10;40.70;;;;;;1083001;39;20390;-68
2022/03/05 01:37:28;;;;;;;22.20;10.27;;;7.10;40.80;;;;;;1081299;47;20038;-69
2022/03/05 01:38:49;;;;;;;17.98;9.57;;;7.10;40.80;;;;;;1082242;47;20038;-68
2022/03/05 01:40:10;;;;;;;20.55;10.00;;;7.10;40.90;;;;;;1082163;47;20035;-69
2022/03/05 01:41:31;;;;;;;18.85;10.48;;;7.00;40.90;;;;;;1083569;47;20034;-69
2022/03/05 01:42:52;;;;;;;18.40;10.57;;;7.00;41.00;;;;;;1082237;46;20041;-69
2022/03/05 01:44:14;;;;;;;17.90;9.63;;;7.00;41.10;;;;;;1082484;47;20150;-69
2022/03/05 01:45:35;;;;;;;18.90;10.98;;;7.00;41.10;;;;;;1081517;46;20057;-69
2022/03/05 01:47:01;;;;;;;19.98;10.52;;;7.00;41.20;;;;;;1082364;47;20042;-69
2022/03/05 01:48:22;;;;;;;20.63;10.60;;;7.00;41.40;;;;;;1081654;47;20041;-69
2022/03/05 01:49:43;;;;;;;19.77;10.75;;;7.00;41.40;;;;;;1082173;47;20042;-69
2022/03/05 01:51:04;;;;;;;19.98;11.20;;;7.00;41.40;;;;;;1081652;47;20045;-69
2022/03/05 01:52:25;;;;;;;20.95;10.40;;;6.90;41.40;;;;;;1081566;47;20045;-69
2022/03/05 01:53:46;;;;;;;18.15;10.77;;;6.90;41.50;;;;;;1082648;47;20034;-69
2022/03/05 01:55:07;;;;;;;21.77;10.73;;;6.90;41.50;;;;;;1082397;47;20121;-69
2022/03/05 01:56:29;;;;;;;21.33;11.05;;;6.90;41.60;;;;;;1082068;47;20034;-69
2022/03/05 01:57:52;;;;;;;18.77;11.25;;;7.00;41.70;;;;;;1081611;46;20491;-69
2022/03/05 01:59:13;;;;;;;20.33;11.02;;;6.90;41.70;;;;;;1082197;47;20045;-70
2022/03/05 02:00:35;;;;;;;21.27;10.98;;;6.80;41.60;;;;;;1081771;47;20034;-69
2022/03/05 02:01:56;;;;;;;21.98;11.38;;;6.80;41.70;;;;;;1083170;39;20379;-69
2022/03/05 02:03:17;;;;;;;22.95;11.95;;;6.80;41.70;;;;;;1082431;39;20094;-69
2022/03/05 02:04:37;;;;;;;22.05;11.82;;;6.80;41.70;;;;;;1082043;47;20038;-69
2022/03/05 02:05:58;;;;;;;21.02;10.93;;;6.80;41.90;;;;;;1082196;46;20039;-70
2022/03/05 02:07:19;;;;;;;22.35;12.00;;;6.80;41.90;;;;;;1082488;47;20058;-69
2022/03/05 02:08:40;;;;;;;19.30;10.55;;;6.70;42.00;;;;;;1082378;47;20506;-69
2022/03/05 02:10:03;;;;;;;21.55;10.98;;;6.70;42.10;;;;;;1081703;46;20039;-69
2022/03/05 02:11:25;;;;;;;18.75;10.43;;;6.70;42.10;;;;;;1081565;47;20146;-69
2022/03/05 02:12:46;;;;;;;19.92;11.07;;;6.70;42.10;;;;;;1081784;47;20058;-70
2022/03/05 02:14:07;;;;;;;23.25;11.25;;;6.70;42.10;;;;;;1082273;47;20034;-70
2022/03/05 02:15:28;;;;;;;20.55;10.38;;;6.70;42.10;;;;;;1081556;47;20062;-69
2022/03/05 02:16:50;;;;;;;24.08;12.07;;;6.70;42.30;;;;;;1080956;47;20043;-70
2022/03/05 02:18:11;;;;;;;21.13;11.02;;;6.70;42.40;;;;;;1080399;46;21263;-69
2022/03/05 02:19:32;;;;;;;21.77;11.27;;;6.70;42.90;;;;;;1082176;46;20035;-70
2022/03/05 02:20:54;;;;;;;21.48;11.90;;;6.60;42.40;;;;;;1082013;47;20038;-70
2022/03/05 02:22:15;;;;;;;21.95;12.07;;;6.60;42.40;;;;;;1082237;47;20069;-69
2022/03/05 02:23:36;;;;;;;20.33;11.27;;;6.60;42.50;;;;;;1081714;47;20077;-69
2022/03/05 02:25:02;;;;;;;25.35;11.95;;;6.60;42.40;;;;;;1081910;47;20046;-69
2022/03/05 02:26:23;;;;;;;21.67;11.00;;;6.60;42.50;;;;;;1081949;46;20479;-69
2022/03/05 02:27:44;;;;;;;23.50;11.38;;;6.60;42.50;;;;;;1081149;46;20043;-70
2022/03/05 02:29:06;;;;;;;21.17;11.15;;;6.60;42.60;;;;;;1082118;47;20878;-69
2022/03/05 02:30:27;;;;;;;22.60;11.55;;;6.50;42.60;;;;;;1081349;47;20129;-69
2022/03/05 02:31:48;;;;;;;22.27;12.15;;;6.50;42.60;;;;;;1082277;47;20065;-69
2022/03/05 02:33:09;;;;;;;26.15;12.15;;;6.50;42.50;;;;;;1082242;47;20057;-69
2022/03/05 02:34:30;;;;;;;22.45;11.90;;;6.50;42.60;;;;;;1082055;47;20034;-70
2022/03/05 02:35:51;;;;;;;22.30;10.90;;;6.50;42.70;;;;;;1082262;47;20506;-70
2022/03/05 02:37:15;;;;;;;22.60;11.70;;;6.50;42.70;;;;;;1082483;47;20137;-69
2022/03/05 02:38:36;;;;;;;24.30;12.05;;;6.50;42.80;;;;;;1082413;47;20656;-69
2022/03/05 02:39:57;;;;;;;22.73;11.63;;;6.40;42.80;;;;;;1082301;47;20035;-69
2022/03/05 02:41:18;;;;;;;24.55;12.00;;;6.40;42.90;;;;;;1082679;47;20041;-69
2022/03/05 02:42:39;;;;;;;21.20;11.88;;;6.40;42.90;;;;;;1081687;54;20130;-70
2022/03/05 02:44:00;;;;;;;25.38;11.80;;;6.40;42.90;;;;;;1082999;47;20057;-71
2022/03/05 02:45:21;;;;;;;22.83;11.63;;;6.40;43.10;;;;;;1081022;47;20039;-69
2022/03/05 02:46:42;;;;;;;24.13;11.93;;;6.40;43.20;;;;;;1081041;47;20558;-70
2022/03/05 02:48:05;;;;;;;24.13;11.63;;;6.40;43.30;;;;;;1081125;47;20792;-69
2022/03/05 02:49:26;;;;;;;20.92;11.50;;;6.40;43.40;;;;;;1082027;47;20034;-69
2022/03/05 02:50:50;;;;;;;24.60;11.73;;;6.40;43.40;;;;;;1082259;47;20860;-69
2022/03/05 02:52:11;;;;;;;22.10;12.40;;;6.40;43.40;;;;;;1081745;47;20043;-69
2022/03/05 02:53:32;;;;;;;24.50;11.63;;;6.30;43.30;;;;;;1082476;47;20034;-69
2022/03/05 02:54:53;;;;;;;22.67;11.63;;;6.30;43.40;;;;;;1081724;47;20034;-69
2022/03/05 02:56:14;;;;;;;23.48;11.23;;;6.30;43.50;;;;;;1081217;54;20035;-69
2022/03/05 02:57:35;;;;;;;23.00;12.50;;;6.30;43.50;;;;;;1081790;47;20483;-69
2022/03/05 02:58:56;;;;;;;26.27;12.93;;;6.30;43.50;;;;;;1082413;47;20045;-69
2022/03/05 03:00:18;;;;;;;23.30;11.73;;;6.30;43.50;;;;;;1082171;47;20034;-69
2022/03/05 03:01:39;;;;;;;24.60;12.55;;;6.30;43.60;;;;;;1082178;47;20047;-69
2022/03/05 03:03:00;;;;;;;21.63;12.32;;;6.30;43.60;;;;;;1081955;47;20035;-69
2022/03/05 03:04:21;;;;;;;24.38;12.20;;;6.30;43.80;;;;;;1081538;47;20041;-69
2022/03/05 03:05:42;;;;;;;22.45;11.93;;;6.20;43.70;;;;;;1082774;47;20058;-69
2022/03/05 03:07:03;;;;;;;24.05;12.63;;;6.20;43.70;;;;;;1081408;47;20038;-68
2022/03/05 03:08:24;;;;;;;27.63;13.15;;;6.20;43.70;;;;;;1081816;47;20034;-69
2022/03/05 03:09:45;;;;;;;25.38;12.27;;;6.20;43.80;;;;;;1080882;47;20035;-69
2022/03/05 03:11:06;;;;;;;25.35;12.40;;;6.10;43.90;;;;;;1081334;47;20498;-69
2022/03/05 03:12:27;;;;;;;23.27;12.02;;;6.10;43.90;;;;;;1081861;47;20030;-69
2022/03/05 03:13:49;;;;;;;23.00;12.35;;;6.10;44.00;;;;;;1082607;47;20034;-70
2022/03/05 03:15:12;;;;;;;23.73;12.30;;;6.10;43.90;;;;;;1081761;47;20034;-70
2022/03/05 03:16:33;;;;;;;23.08;11.65;;;6.10;44.00;;;;;;1081499;47;20728;-68
2022/03/05 03:17:54;;;;;;;24.05;13.10;;;6.10;44.00;;;;;;1081807;47;20046;-67
2022/03/05 03:19:15;;;;;;;28.48;12.77;;;6.10;44.10;;;;;;1081384;47;20026;-69
2022/03/05 03:20:36;;;;;;;25.90;12.88;;;6.10;44.20;;;;;;1081770;47;20034;-68
2022/03/05 03:21:57;;;;;;;22.58;11.50;;;6.10;44.40;;;;;;1081907;47;20045;-69
2022/03/05 03:23:18;;;;;;;23.45;13.18;;;6.10;44.50;;;;;;1081967;47;20040;-69
2022/03/05 03:24:39;;;;;;;24.23;12.48;;;6.00;44.40;;;;;;1081649;47;20506;-68
2022/03/05 03:26:00;;;;;;;25.25;12.68;;;6.00;44.60;;;;;;1082252;47;20063;-69
2022/03/05 03:27:21;;;;;;;25.05;12.40;;;6.00;44.50;;;;;;1082327;47;20042;-68
2022/03/05 03:28:42;;;;;;;25.75;12.75;;;6.00;44.50;;;;;;1082392;39;20362;-69
2022/03/05 03:30:05;;;;;;;24.08;12.82;;;6.00;44.60;;;;;;1080162;47;20042;-68
2022/03/05 03:31:26;;;;;;;28.02;13.65;;;6.00;44.70;;;;;;1081620;47;20038;-69
2022/03/05 03:32:48;;;;;;;23.27;12.52;;;6.00;44.70;;;;;;1081406;47;20040;-70
2022/03/05 03:34:09;;;;;;;28.50;13.18;;;5.90;44.60;;;;;;1082028;47;20046;-68
2022/03/05 03:35:30;;;;;;;26.05;12.13;;;6.00;44.70;;;;;;1081243;47;20046;-70
2022/03/05 03:36:51;;;;;;;29.05;12.82;;;5.90;44.70;;;;;;1082090;47;20061;-71
2022/03/05 03:38:12;;;;;;;25.90;13.18;;;5.90;44.70;;;;;;1081493;47;20502;-69
2022/03/05 03:39:33;;;;;;;26.10;12.77;;;5.90;44.90;;;;;;1082402;47;20031;-69
2022/03/05 03:40:54;;;;;;;26.30;13.60;;;5.90;44.90;;;;;;1081478;47;20046;-70
2022/03/05 03:42:15;;;;;;;30.23;13.85;;;5.90;44.90;;;;;;1081461;47;20045;-69
2022/03/05 03:43:36;;;;;;;26.67;13.45;;;5.90;45.00;;;;;;1082200;39;20392;-69
2022/03/05 03:44:57;;;;;;;27.02;13.90;;;5.80;45.10;;;;;;1081762;47;20038;-69
2022/03/05 03:46:18;;;;;;;26.45;13.65;;;5.80;45.10;;;;;;1080114;47;20035;-70
2022/03/05 03:47:41;;;;;;;25.08;13.50;;;5.80;45.10;;;;;;1081511;47;20035;-69
2022/03/05 03:49:02;;;;;;;23.98;13.45;;;5.80;45.20;;;;;;1081583;47;20034;-70
2022/03/05 03:50:23;;;;;;;27.65;13.57;;;5.80;45.20;;;;;;1081607;47;20041;-69
2022/03/05 03:51:45;;;;;;;26.80;13.52;;;5.80;45.30;;;;;;1082373;47;20035;-69
2022/03/05 03:53:06;;;;;;;25.27;13.45;;;5.80;45.40;;;;;;1080463;47;20041;-69
2022/03/05 03:54:27;;;;;;;25.55;13.35;;;5.80;45.40;;;;;;1081043;39;20390;-70
2022/03/05 03:55:48;;;;;;;28.77;14.35;;;5.80;45.40;;;;;;1081975;54;20038;-70
2022/03/05 03:57:09;;;;;;;23.75;12.45;;;5.70;45.40;;;;;;1082618;46;20035;-68
2022/03/05 03:58:30;;;;;;;27.52;13.40;;;5.70;45.30;;;;;;1082802;46;20142;-69
2022/03/05 03:59:52;;;;;;;27.60;13.30;;;5.70;45.40;;;;;;1082291;46;20034;-69
2022/03/05 04:01:13;;;;;;;29.42;14.15;;;5.70;45.50;;;;;;1082309;47;20510;-69
2022/03/05 04:02:34;;;;;;;26.10;13.23;;;5.70;45.50;;;;;;1082148;46;20039;-68
2022/03/05 04:03:55;;;;;;;28.13;13.70;;;5.70;45.60;;;;;;1082314;54;20034;-68
2022/03/05 04:05:16;;;;;;;29.08;13.55;;;5.70;45.60;;;;;;1082166;46;20491;-69
2022/03/05 04:09:58;;;;;;;26.88;13.07;;;5.70;45.70;;;;;;1082584;46;20034;-70
2022/03/05 04:11:19;;;;;;;27.25;13.05;;;5.70;45.70;;;;;;1081869;46;20161;-69
2022/03/05 04:12:40;;;;;;;26.08;13.50;;;5.60;45.70;;;;;;1082562;47;20035;-69
2022/03/05 04:14:01;;;;;;;26.35;13.35;;;5.60;45.70;;;;;;1082036;46;20034;-69
2022/03/05 04:15:22;;;;;;;29.17;14.27;;;5.60;45.80;;;;;;1081301;46;20038;-69
2022/03/05 04:16:43;;;;;;;31.15;15.27;;;5.60;45.90;;;;;;1082342;46;20034;-69
2022/03/05 04:18:06;;;;;;;29.48;14.35;;;5.60;46.00;;;;;;1081407;46;20046;-69
2022/03/05 04:19:27;;;;;;;30.25;15.00;;;5.60;46.20;;;;;;1082280;47;20034;-69
2022/03/05 04:20:48;;;;;;;27.42;13.50;;;5.60;46.20;;;;;;1082608;46;20034;-70
2022/03/05 04:22:09;;;;;;;31.90;15.93;;;5.60;46.30;;;;;;1082474;47;20498;-69
2022/03/05 04:23:30;;;;;;;34.83;15.80;;;5.50;46.20;;;;;;1082273;39;20794;-69
2022/03/05 04:24:51;;;;;;;30.70;15.05;;;5.60;46.30;;;;;;1081610;47;20038;-69
2022/03/05 04:26:12;;;;;;;28.00;14.18;;;5.50;46.20;;;;;;1082258;47;20034;-69
2022/03/05 04:27:33;;;;;;;29.80;14.10;;;5.50;46.30;;;;;;1082370;47;20159;-69
2022/03/05 04:28:54;;;;;;;29.02;14.18;;;5.50;46.30;;;;;;1082649;47;20035;-69
2022/03/05 04:30:15;;;;;;;27.83;13.90;;;5.50;46.40;;;;;;1081387;46;20101;-69
2022/03/05 04:31:36;;;;;;;29.45;14.68;;;5.50;46.50;;;;;;1082390;47;20762;-69
2022/03/05 04:32:57;;;;;;;31.20;14.77;;;5.50;46.40;;;;;;1082986;46;20045;-69
2022/03/05 04:34:18;;;;;;;28.40;13.90;;;5.50;46.50;;;;;;1082386;46;20034;-69
2022/03/05 04:35:39;;;;;;;29.83;14.45;;;5.50;46.50;;;;;;1082002;46;20035;-68
2022/03/05 04:37:01;;;;;;;29.17;14.15;;;5.50;46.60;;;;;;1082289;46;20063;-69
2022/03/05 04:38:21;;;;;;;30.90;14.43;;;5.50;46.70;;;;;;1082362;46;20058;-68
2022/03/05 04:39:42;;;;;;;28.42;14.65;;;5.40;46.70;;;;;;1082714;46;20034;-68
2022/03/05 04:41:03;;;;;;;29.33;14.07;;;5.40;46.60;;;;;;1082445;47;20507;-69
2022/03/05 04:42:24;;;;;;;29.40;14.48;;;5.40;46.70;;;;;;1082251;46;20142;-70
2022/03/05 04:43:47;;;;;;;27.80;13.88;;;5.40;46.80;;;;;;1082410;46;20857;-68
2022/03/05 04:45:08;;;;;;;27.17;13.27;;;5.40;46.80;;;;;;1082165;47;20498;-68
2022/03/05 04:46:29;;;;;;;28.75;14.38;;;5.40;46.80;;;;;;1082561;47;20038;-68
2022/03/05 04:47:50;;;;;;;31.52;14.52;;;5.40;46.80;;;;;;1081406;46;20027;-69
2022/03/05 04:49:12;;;;;;;28.35;14.07;;;5.40;46.90;;;;;;1082253;46;20044;-69
2022/03/05 04:50:33;;;;;;;28.65;14.43;;;5.40;46.90;;;;;;1082323;47;20130;-68
2022/03/05 04:51:54;;;;;;;30.15;14.85;;;5.40;47.00;;;;;;1082779;39;20378;-69
2022/03/05 04:53:19;;;;;;;28.00;14.20;;;5.40;47.00;;;;;;1082115;47;20822;-69
2022/03/05 04:54:40;;;;;;;26.33;13.52;;;5.40;47.10;;;;;;1082215;46;20071;-69
2022/03/05 04:56:02;;;;;;;30.92;14.90;;;5.40;47.00;;;;;;1081784;47;20038;-69
2022/03/05 04:57:24;;;;;;;30.20;14.65;;;5.40;47.10;;;;;;1081893;46;20041;-69
2022/03/05 04:58:46;;;;;;;27.25;13.73;;;5.30;47.10;;;;;;1082386;46;20130;-69
2022/03/05 05:00:09;;;;;;;28.50;14.27;;;5.30;47.20;;;;;;1081662;47;20797;-69
2022/03/05 05:01:29;;;;;;;27.98;13.80;;;5.30;47.30;;;;;;1082703;47;20786;-69
2022/03/05 05:02:50;;;;;;;32.72;15.63;;;5.30;47.40;;;;;;1082530;46;20038;-68
2022/03/05 05:04:11;;;;;;;27.20;13.40;;;5.30;47.40;;;;;;1081899;47;20038;-68
2022/03/05 05:05:32;;;;;;;34.25;14.10;;;5.30;47.50;;;;;;1081345;47;20490;-68
2022/03/05 05:06:53;;;;;;;25.83;13.75;;;5.30;47.40;;;;;;1082380;47;20041;-68
2022/03/05 05:08:14;;;;;;;30.65;14.10;;;5.30;47.50;;;;;;1082482;39;20111;-69
2022/03/05 05:09:35;;;;;;;28.42;13.10;;;5.30;47.50;;;;;;1082373;47;20803;-68
2022/03/05 05:10:56;;;;;;;31.75;13.40;;;5.30;47.60;;;;;;1082337;46;20038;-68
2022/03/05 05:12:17;;;;;;;30.33;14.45;;;5.30;47.70;;;;;;1082525;46;20570;-68
2022/03/05 05:13:39;;;;;;;31.65;15.05;;;5.30;47.70;;;;;;1081689;46;20026;-68
2022/03/05 05:15:00;;;;;;;32.17;14.43;;;5.30;47.70;;;;;;1081415;47;20073;-68
2022/03/05 05:16:21;;;;;;;25.80;13.35;;;5.20;47.80;;;;;;1081706;46;20514;-68
2022/03/05 05:17:42;;;;;;;30.50;14.23;;;5.20;47.80;;;;;;1081556;46;20811;-68
2022/03/05 05:20:43;;;;;;;29.30;13.52;;;5.30;47.90;;;;;;1082220;47;20814;-69
2022/03/05 05:22:06;;;;;;;29.70;14.02;;;5.20;47.80;;;;;;1082572;47;20038;-68
2022/03/05 05:23:27;;;;;;;29.50;14.98;;;5.20;48.00;;;;;;1082089;46;20034;-69
2022/03/05 05:24:48;;;;;;;29.42;14.02;;;5.20;48.00;;;;;;1082175;47;20057;-69
2022/03/05 05:26:10;;;;;;;27.55;13.75;;;5.20;48.10;;;;;;1082552;47;20796;-69
2022/03/05 05:27:38;;;;;;;28.33;13.38;;;5.20;48.00;;;;;;1081593;46;20491;-69
2022/03/05 05:28:59;;;;;;;26.85;14.45;;;5.20;48.30;;;;;;1082221;46;20053;-69
2022/03/05 05:30:20;;;;;;;30.92;14.18;;;5.20;48.20;;;;;;1081391;46;20038;-69
2022/03/05 05:31:41;;;;;;;29.30;13.63;;;5.20;48.10;;;;;;1082402;47;20034;-69
2022/03/05 05:33:02;;;;;;;25.73;13.75;;;5.10;48.10;;;;;;1081880;48;20034;-69
2022/03/05 05:34:23;;;;;;;27.50;14.65;;;5.10;48.20;;;;;;1082597;47;20038;-69
2022/03/05 05:35:44;;;;;;;31.52;14.35;;;5.10;48.20;;;;;;1082157;47;20034;-69
2022/03/05 05:37:05;;;;;;;28.90;13.75;;;5.20;48.30;;;;;;1082207;47;20034;-69
2022/03/05 05:38:26;;;;;;;30.38;14.25;;;5.10;48.30;;;;;;1081600;47;20045;-69
2022/03/05 05:39:47;;;;;;;30.20;14.63;;;5.10;48.40;;;;;;1082512;47;20041;-69
2022/03/05 05:41:08;;;;;;;28.95;14.05;;;5.10;48.50;;;;;;1082063;47;20145;-69
2022/03/05 05:42:29;;;;;;;28.30;14.13;;;5.10;48.60;;;;;;1082114;46;20042;-69
2022/03/05 05:43:50;;;;;;;29.55;13.50;;;5.10;48.50;;;;;;1081666;47;20759;-69
2022/03/05 05:45:12;;;;;;;27.15;13.85;;;5.10;48.50;;;;;;1081710;47;20077;-69
2022/03/05 05:46:32;;;;;;;26.58;12.90;;;5.10;48.70;;;;;;1082459;47;20049;-70
2022/03/05 05:47:53;;;;;;;27.48;14.30;;;5.10;48.70;;;;;;1081765;47;20073;-71
2022/03/05 05:49:15;;;;;;;28.92;14.25;;;5.10;48.70;;;;;;1081892;47;20038;-69
2022/03/05 05:50:36;;;;;;;29.98;14.45;;;5.10;49.20;;;;;;1081017;47;20034;-69
2022/03/05 05:51:57;;;;;;;26.45;12.88;;;5.10;48.70;;;;;;1082302;47;20038;-70
2022/03/05 05:53:18;;;;;;;27.20;13.80;;;5.10;48.90;;;;;;1081170;46;20041;-69
2022/03/05 05:54:38;;;;;;;28.33;14.18;;;5.10;48.90;;;;;;1082289;46;20160;-70
2022/03/05 05:55:59;;;;;;;30.80;14.80;;;5.10;48.90;;;;;;1082035;47;20058;-69
2022/03/05 05:57:20;;;;;;;27.27;13.88;;;5.10;49.00;;;;;;1082103;47;20058;-69
2022/03/05 05:58:41;;;;;;;29.05;14.38;;;5.00;49.00;;;;;;1082237;47;20034;-69
2022/03/05 06:00:04;;;;;;;29.15;13.18;;;5.00;49.00;;;;;;1082135;47;20034;-68
2022/03/05 06:01:25;;;;;;;28.27;14.52;;;5.00;49.10;;;;;;1082169;39;20708;-69
2022/03/05 06:02:45;;;;;;;29.35;13.90;;;5.00;49.00;;;;;;1082408;46;20042;-69
2022/03/05 06:04:07;;;;;;;29.00;14.05;;;5.00;49.00;;;;;;1082359;47;20046;-69
2022/03/05 06:05:28;;;;;;;31.40;14.82;;;5.00;49.00;;;;;;1081907;47;20046;-69
2022/03/05 06:06:49;;;;;;;30.42;15.38;;;5.00;49.20;;;;;;1082088;47;20046;-69
2022/03/05 06:08:10;;;;;;;28.13;13.75;;;4.90;49.20;;;;;;1081797;46;20061;-69
2022/03/05 06:09:31;;;;;;;31.30;14.20;;;5.00;49.20;;;;;;1082403;47;20074;-68
2022/03/05 06:10:52;;;;;;;31.60;14.65;;;5.00;49.20;;;;;;1082296;47;21943;-68
2022/03/05 06:12:13;;;;;;;29.58;15.52;;;5.00;49.30;;;;;;1082514;46;20038;-69
2022/03/05 06:13:34;;;;;;;31.65;14.80;;;5.00;49.30;;;;;;1082203;46;20041;-69
2022/03/05 06:14:55;;;;;;;27.58;13.98;;;5.00;49.50;;;;;;1081468;47;20035;-68
2022/03/05 06:16:16;;;;;;;31.02;14.65;;;5.00;49.50;;;;;;1082363;47;21022;-70
2022/03/05 06:17:41;;;;;;;29.15;14.43;;;4.90;49.40;;;;;;1082280;47;20035;-68
2022/03/05 06:19:02;;;;;;;29.33;13.63;;;4.90;49.70;;;;;;1082539;46;20026;-69
2022/03/05 06:20:24;;;;;;;28.52;13.95;;;4.90;49.50;;;;;;1081804;47;20798;-68
2022/03/05 06:21:46;;;;;;;28.70;13.88;;;4.90;49.60;;;;;;1080718;47;20030;-68
2022/03/05 06:23:07;;;;;;;29.42;14.68;;;5.00;49.60;;;;;;1081030;47;20038;-69
2022/03/05 06:24:28;;;;;;;30.88;13.45;;;4.90;49.70;;;;;;1080945;47;20729;-69
2022/03/05 06:25:51;;;;;;;30.10;13.68;;;4.90;49.60;;;;;;1081924;46;20038;-69
2022/03/05 06:27:12;;;;;;;31.95;14.93;;;4.90;49.80;;;;;;1080805;47;20061;-69
2022/03/05 06:28:33;;;;;;;31.80;15.00;;;4.90;49.80;;;;;;1082538;39;20512;-70
2022/03/05 06:29:54;;;;;;;27.63;13.60;;;4.90;49.80;;;;;;1082187;47;20039;-69
2022/03/05 06:31:15;;;;;;;29.38;14.00;;;4.90;49.90;;;;;;1080904;47;20034;-69
2022/03/05 06:32:37;;;;;;;27.63;14.07;;;4.90;49.90;;;;;;1081056;39;20393;-69
2022/03/05 06:33:58;;;;;;;31.50;14.82;;;4.90;49.90;;;;;;1080507;47;20037;-69
2022/03/05 06:35:19;;;;;;;26.45;14.02;;;4.90;50.00;;;;;;1081231;47;20055;-69
2022/03/05 06:36:40;;;;;;;27.60;13.20;;;4.90;50.00;;;;;;1080595;47;20129;-69
2022/03/05 06:38:01;;;;;;;31.23;15.07;;;5.00;50.20;;;;;;1080822;47;20035;-69
2022/03/05 06:39:22;;;;;;;29.58;14.15;;;4.90;50.30;;;;;;1081208;47;22064;-70
2022/03/05 06:40:44;;;;;;;30.67;15.75;;;4.90;50.30;;;;;;1080806;47;20073;-69
2022/03/05 06:42:05;;;;;;;31.10;15.50;;;4.90;50.30;;;;;;1080444;47;20034;-69
2022/03/05 06:43:27;;;;;;;26.50;13.75;;;4.90;50.40;;;;;;1080653;47;20038;-69
2022/03/05 06:44:48;;;;;;;31.45;15.25;;;5.00;50.40;;;;;;1081152;47;20034;-69
2022/03/05 06:46:09;;;;;;;31.08;14.05;;;5.00;50.40;;;;;;1082445;47;20076;-69
2022/03/05 06:47:30;;;;;;;30.63;14.88;;;4.90;50.50;;;;;;1081615;47;20034;-68
2022/03/05 06:48:51;;;;;;;26.45;13.13;;;4.90;50.50;;;;;;1081428;47;20057;-68
2022/03/05 06:50:12;;;;;;;30.55;14.18;;;4.90;50.60;;;;;;1081920;47;20041;-69
2022/03/05 06:51:33;;;;;;;30.80;15.10;;;5.00;50.60;;;;;;1082877;47;20041;-69
2022/03/05 06:52:54;;;;;;;25.83;13.93;;;5.00;50.70;;;;;;1082454;47;20074;-68
2022/03/05 06:54:15;;;;;;;30.23;14.35;;;5.00;50.70;;;;;;1081936;47;20034;-71
2022/03/05 06:55:36;;;;;;;28.33;14.10;;;5.00;50.80;;;;;;1081616;47;20109;-70
2022/03/05 06:56:57;;;;;;;30.00;14.40;;;5.00;50.80;;;;;;1082566;47;20034;-69
2022/03/05 06:58:19;;;;;;;26.58;13.82;;;5.00;50.90;;;;;;1081741;47;20499;-69
2022/03/05 06:59:40;;;;;;;28.23;14.05;;;5.00;51.00;;;;;;1081983;47;20058;-69
2022/03/05 07:01:00;;;;;;;28.17;14.93;;;5.00;51.00;;;;;;1081637;47;20117;-69
2022/03/05 07:02:22;;;;;;;29.75;14.30;;;5.10;51.10;;;;;;1082213;47;20034;-69